Time;durP1;ratioP1;P1;durP2;ratioP2;P2;SDS_P1;SDS_P2;PMS_P1;PMS_P2;Temp;Humidity;BMP_temperature;BMP_pressure;BME280_temperature;BME280_humidity;BME280_pressure;Samples;Min_cycle;Max_cycle;Signal;HPM_P1;HPM_P2
2023/01/12 00:01:10;;;;;;;;;4.00;4.00;;;;;20.25;58.26;100488.32;109122;1256;20943;-71
2023/01/12 00:03:37;;;;;;;;;1.00;1.00;;;;;20.24;58.20;100491.94;109194;1256;19741;-71
2023/01/12 00:06:07;;;;;;;;;1.00;1.00;;;;;20.24;58.11;100494.42;109177;1270;22786;-71
2023/01/12 00:08:35;;;;;;;;;5.00;2.00;;;;;20.25;58.25;100495.67;109264;1265;19466;-70
2023/01/12 00:11:03;;;;;;;;;2.00;2.00;;;;;20.24;58.07;100492.61;109150;1270;18886;-71
2023/01/12 00:13:31;;;;;;;;;2.00;2.00;;;;;20.23;58.11;100488.61;109178;1270;18710;-71
2023/01/12 00:18:51;;;;;;;;;2.00;2.00;;;;;20.24;58.39;100494.29;109017;1270;20039;-69
2023/01/12 00:21:19;;;;;;;;;2.00;2.00;;;;;20.24;58.23;100494.08;109621;1256;20309;-69
2023/01/12 00:23:47;;;;;;;;;2.00;2.00;;;;;20.23;58.23;100497.83;109936;1266;19428;-73
2023/01/12 00:26:15;;;;;;;;;2.00;2.00;;;;;20.23;58.29;100498.75;109851;1265;18781;-70
2023/01/12 00:28:45;;;;;;;;;2.00;1.00;;;;;20.23;58.26;100502.05;110034;1257;20225;-71
2023/01/12 00:31:12;;;;;;;;;2.00;2.00;;;;;20.23;58.13;100510.35;110058;1259;20836;-70
2023/01/12 00:33:47;;;;;;;;;2.00;2.00;;;;;20.22;58.39;100508.99;110238;1264;19582;-70
2023/01/12 00:36:15;;;;;;;;;2.00;2.00;;;;;20.23;58.23;100512.56;110446;1265;18844;-70
2023/01/12 00:38:43;;;;;;;;;1.00;1.00;;;;;20.22;58.25;100513.39;110404;1265;19413;-69
2023/01/12 00:45:20;;;;;;;;;1.67;1.67;;;;;20.22;58.15;100512.63;110274;1256;20897;-69
2023/01/12 00:46:45;;;;;;;;;1.00;1.00;;;;;20.22;58.27;100523.39;110227;1256;20686;-69
2023/01/12 00:49:13;;;;;;;;;1.00;1.00;;;;;20.21;58.02;100521.27;110122;1256;18807;-70
2023/01/12 00:51:40;;;;;;;;;1.00;1.00;;;;;20.21;58.27;100529.23;110214;1265;22102;-70
2023/01/12 00:54:08;;;;;;;;;2.00;2.00;;;;;20.22;58.31;100536.48;110146;1249;20797;-69
2023/01/12 00:56:36;;;;;;;;;1.00;1.00;;;;;20.21;58.30;100537.22;109904;1253;19638;-69
2023/01/12 00:59:04;;;;;;;;;2.67;2.00;;;;;20.21;58.08;100537.60;109929;1253;20021;-70
2023/01/12 01:01:33;;;;;;;;;2.00;2.00;;;;;20.21;58.19;100543.68;110127;1265;20741;-70
2023/01/12 01:04:01;;;;;;;;;2.00;2.00;;;;;20.21;58.04;100545.61;110136;1265;18489;-70
2023/01/12 01:06:30;;;;;;;;;2.00;2.00;;;;;20.21;58.18;100547.35;110110;1265;18657;-70
2023/01/12 01:08:58;;;;;;;;;2.00;2.00;;;;;20.21;58.33;100547.08;110124;1250;21658;-70
2023/01/12 01:11:26;;;;;;;;;1.00;1.00;;;;;20.21;58.30;100552.13;109928;1251;22236;-69
2023/01/12 01:13:54;;;;;;;;;1.50;1.00;;;;;20.21;58.15;100552.92;110100;1250;18618;-73
2023/01/12 01:16:23;;;;;;;;;1.50;1.00;;;;;20.20;58.29;100553.32;110093;1251;21274;-69
2023/01/12 01:18:50;;;;;;;;;1.00;1.00;;;;;20.20;58.27;100551.85;110129;1265;18443;-70
2023/01/12 01:21:19;;;;;;;;;1.00;1.00;;;;;20.20;58.29;100547.16;110011;1266;18679;-70
2023/01/12 01:23:47;;;;;;;;;1.00;1.00;;;;;20.20;58.33;100551.30;110136;1265;19777;-71
2023/01/12 01:26:16;;;;;;;;;2.00;2.00;;;;;20.21;58.42;100549.85;109992;1265;19647;-69
2023/01/12 01:28:45;;;;;;;;;2.00;2.00;;;;;20.21;58.39;100549.85;110045;1265;20175;-70
2023/01/12 01:31:13;;;;;;;;;1.00;1.00;;;;;20.20;58.29;100548.88;109907;1256;19556;-71
2023/01/12 01:33:41;;;;;;;;;1.00;1.00;;;;;20.20;58.42;100551.71;110251;1250;21891;-71
2023/01/12 01:36:10;;;;;;;;;1.33;1.00;;;;;20.21;58.39;100560.70;110137;1249;19864;-69
2023/01/12 01:38:38;;;;;;;;;1.50;1.50;;;;;20.21;58.34;100557.40;110112;1248;22261;-69
2023/01/12 01:41:05;;;;;;;;;1.67;1.67;;;;;20.20;58.44;100557.33;110089;1265;18679;-72
2023/01/12 01:43:33;;;;;;;;;2.00;1.00;;;;;20.20;58.18;100560.77;110116;1265;19104;-70
2023/01/12 01:46:01;;;;;;;;;1.50;1.50;;;;;20.19;58.21;100559.45;110098;1250;19367;-70
2023/01/12 01:48:30;;;;;;;;;1.00;1.00;;;;;20.20;58.19;100559.00;110093;1265;18330;-70
2023/01/12 01:50:59;;;;;;;;;2.00;1.00;;;;;20.20;58.32;100560.80;110112;1250;18627;-69
2023/01/12 01:53:26;;;;;;;;;1.00;1.00;;;;;20.21;58.30;100564.91;110017;1265;19353;-70
2023/01/12 01:55:54;;;;;;;;;1.00;1.00;;;;;20.19;58.49;100563.23;109920;1253;18427;-71
2023/01/12 01:58:22;;;;;;;;;1.00;1.00;;;;;20.20;58.17;100563.77;109898;1265;18987;-69
2023/01/12 02:00:52;;;;;;;;;1.00;1.00;;;;;20.19;58.23;100556.21;109954;1266;20747;-69
2023/01/12 02:03:20;;;;;;;;;1.00;1.00;;;;;20.19;58.16;100559.14;110106;1265;18429;-71
2023/01/12 02:05:49;;;;;;;;;2.00;2.00;;;;;20.19;58.36;100556.77;109970;1265;18602;-70
2023/01/12 02:08:18;;;;;;;;;2.00;2.00;;;;;20.18;58.24;100563.00;109992;1250;20781;-72
2023/01/12 02:10:46;;;;;;;;;1.33;1.33;;;;;20.17;58.42;100563.30;109988;1251;19654;-70
2023/01/12 02:18:45;;;;;;;;;2.00;2.00;;;;;20.18;58.44;100565.58;110112;1265;22615;-69
2023/01/12 02:21:14;;;;;;;;;1.00;1.00;;;;;20.18;58.34;100562.36;110134;1265;19050;-70
2023/01/12 02:23:42;;;;;;;;;2.00;1.00;;;;;20.17;58.48;100566.24;110120;1265;19284;-70
2023/01/12 02:26:11;;;;;;;;;2.00;1.00;;;;;20.18;58.28;100567.93;109838;1252;19705;-69
2023/01/12 02:28:39;;;;;;;;;1.00;1.00;;;;;20.18;58.27;100569.94;110148;1265;20276;-70
2023/01/12 02:31:07;;;;;;;;;1.00;1.00;;;;;20.18;58.40;100563.27;109939;1250;21020;-72
2023/01/12 02:33:36;;;;;;;;;2.00;1.00;;;;;20.18;58.20;100563.11;110235;1250;18687;-70
2023/01/12 02:36:03;;;;;;;;;1.00;1.00;;;;;20.18;58.23;100558.33;110103;1265;20540;-69
2023/01/12 02:38:31;;;;;;;;;2.00;1.00;;;;;20.18;58.29;100558.72;110082;1250;21014;-71
2023/01/12 02:41:00;;;;;;;;;1.00;1.00;;;;;20.19;58.42;100560.77;110101;1265;19857;-74
2023/01/12 02:43:27;;;;;;;;;1.00;1.00;;;;;20.18;58.26;100564.70;109926;1265;18583;-71
2023/01/12 02:45:56;;;;;;;;;1.00;1.00;;;;;20.17;58.24;100566.99;110174;1264;19987;-73
2023/01/12 02:48:24;;;;;;;;;1.67;1.00;;;;;20.18;58.33;100574.29;109935;1250;21041;-69
2023/01/12 02:50:51;;;;;;;;;1.00;1.00;;;;;20.17;58.25;100574.73;110141;1256;21968;-72
2023/01/12 02:53:21;;;;;;;;;2.00;2.00;;;;;20.17;58.30;100571.00;110158;1249;25608;-70
2023/01/12 02:55:49;;;;;;;;;1.00;1.00;;;;;20.19;58.40;100566.60;110063;1250;18558;-69
2023/01/12 02:58:18;;;;;;;;;1.00;1.00;;;;;20.18;58.41;100572.66;110142;1265;18822;-68
2023/01/12 03:00:46;;;;;;;;;1.00;1.00;;;;;20.17;58.45;100570.97;110176;1265;19355;-69
2023/01/12 03:03:16;;;;;;;;;1.00;1.00;;;;;20.16;58.46;100574.50;109959;1253;19631;-69
2023/01/12 03:05:44;;;;;;;;;1.00;1.00;;;;;20.16;58.46;100579.39;110094;1265;20147;-75
2023/01/12 03:08:15;;;;;;;;;1.00;1.00;;;;;20.17;58.31;100578.05;110066;1250;20805;-70
2023/01/12 03:10:43;;;;;;;;;1.00;1.00;;;;;20.17;58.23;100576.98;110174;1265;18722;-68
2023/01/12 03:13:11;;;;;;;;;1.00;1.00;;;;;20.17;58.27;100577.66;110144;1265;18607;-71
2023/01/12 03:15:39;;;;;;;;;1.00;1.00;;;;;20.16;58.29;100572.15;110086;1257;20777;-70
2023/01/12 03:18:08;;;;;;;;;1.00;1.00;;;;;20.17;58.26;100576.09;110097;1251;19685;-69
2023/01/12 03:20:36;;;;;;;;;1.00;1.00;;;;;20.16;58.46;100573.45;109867;1266;18723;-69
2023/01/12 03:23:04;;;;;;;;;2.00;2.00;;;;;20.16;58.31;100571.78;109911;1252;19665;-69
2023/01/12 03:25:32;;;;;;;;;1.00;1.00;;;;;20.15;58.40;100570.83;110099;1265;19860;-71
2023/01/12 03:28:00;;;;;;;;;1.00;1.00;;;;;20.16;58.23;100570.32;110125;1257;22626;-69
2023/01/12 03:30:29;;;;;;;;;2.00;2.00;;;;;20.14;58.42;100568.00;110016;1259;20735;-73
2023/01/12 03:32:57;;;;;;;;;1.00;1.00;;;;;20.16;58.50;100574.36;109936;1265;18399;-71
2023/01/12 03:35:25;;;;;;;;;1.00;1.00;;;;;20.15;58.27;100575.01;109886;1266;20167;-71
2023/01/12 03:37:52;;;;;;;;;1.00;1.00;;;;;20.15;58.29;100577.11;109914;1259;20667;-71
2023/01/12 03:40:20;;;;;;;;;2.00;2.00;;;;;20.15;58.36;100576.67;110149;1250;18574;-70
2023/01/12 03:42:48;;;;;;;;;1.00;1.00;;;;;20.15;58.39;100577.52;110182;1265;20068;-70
2023/01/12 03:45:17;;;;;;;;;1.00;1.00;;;;;20.15;58.46;100572.15;110061;1257;19551;-70
2023/01/12 03:47:45;;;;;;;;;2.00;1.00;;;;;20.14;58.45;100572.16;110126;1265;18357;-70
2023/01/12 03:50:12;;;;;;;;;1.00;1.00;;;;;20.15;58.45;100568.64;109923;1265;18877;-71
2023/01/12 03:52:40;;;;;;;;;1.00;1.00;;;;;20.15;58.37;100568.10;110070;1250;20783;-69
2023/01/12 03:55:08;;;;;;;;;1.00;1.00;;;;;20.15;58.19;100559.60;109858;1248;22976;-69
2023/01/12 03:57:37;;;;;;;;;1.00;1.00;;;;;20.15;58.23;100559.60;110162;1265;19255;-72
2023/01/12 04:00:05;;;;;;;;;1.00;1.00;;;;;20.14;58.30;100565.63;110129;1251;20859;-69
2023/01/12 04:02:33;;;;;;;;;1.00;1.00;;;;;20.15;58.41;100569.19;110145;1249;22065;-70
2023/01/12 04:05:00;;;;;;;;;2.00;2.00;;;;;20.15;58.45;100563.83;110136;1265;21467;-69
2023/01/12 04:07:29;;;;;;;;;1.00;1.00;;;;;20.14;58.31;100564.61;109919;1265;19364;-69
2023/01/12 04:09:57;;;;;;;;;1.00;1.00;;;;;20.13;58.26;100566.90;109968;1266;19340;-69
2023/01/12 04:12:25;;;;;;;;;1.00;1.00;;;;;20.14;58.30;100572.56;109974;1265;18772;-69
2023/01/12 04:14:53;;;;;;;;;1.00;1.00;;;;;20.15;58.42;100571.23;110087;1265;19351;-69
2023/01/12 04:17:24;;;;;;;;;1.00;1.00;;;;;20.15;58.19;100574.97;110104;1264;22121;-71
2023/01/12 04:19:53;;;;;;;;;1.00;1.00;;;;;20.15;58.37;100576.98;110189;1251;20141;-69
2023/01/12 04:25:03;;;;;;;;;1.00;1.00;;;;;20.14;58.43;100574.23;110057;1259;18470;-69
2023/01/12 04:27:32;;;;;;;;;1.00;1.00;;;;;20.14;58.39;100576.24;110120;1264;18669;-71
2023/01/12 04:30:01;;;;;;;;;1.00;1.00;;;;;20.14;58.42;100568.08;110112;1249;20927;-71
2023/01/12 04:32:28;;;;;;;;;1.50;1.50;;;;;20.14;58.47;100563.10;110139;1264;22144;-71
2023/01/12 04:34:57;;;;;;;;;1.00;1.00;;;;;20.14;58.37;100562.56;110180;1256;18989;-72
2023/01/12 04:37:27;;;;;;;;;1.00;1.00;;;;;20.14;58.44;100564.58;110168;1265;22233;-71
2023/01/12 04:39:55;;;;;;;;;2.00;1.00;;;;;20.14;58.48;100564.77;110138;1248;18419;-70
2023/01/12 04:45:11;;;;;;;;;1.00;1.00;;;;;20.13;58.25;100562.41;110137;1249;20814;-70
2023/01/12 04:47:39;;;;;;;;;1.00;1.00;;;;;20.13;58.46;100554.41;110126;1265;18633;-72
2023/01/12 04:50:07;;;;;;;;;1.00;1.00;;;;;20.13;58.34;100559.27;110169;1250;18881;-70
2023/01/12 04:52:34;;;;;;;;;1.00;1.00;;;;;20.14;58.24;100562.25;110104;1249;22650;-69
2023/01/12 04:55:04;;;;;;;;;1.00;1.00;;;;;20.14;58.37;100559.38;110182;1265;18475;-72
2023/01/12 04:57:31;;;;;;;;;1.00;1.00;;;;;20.14;58.12;100557.70;110037;1250;18893;-68
2023/01/12 05:00:00;;;;;;;;;1.00;1.00;;;;;20.14;58.32;100557.19;110041;1265;20874;-69
2023/01/12 05:02:30;;;;;;;;;1.00;1.00;;;;;20.13;58.34;100558.36;110070;1265;21553;-68
2023/01/12 05:05:00;;;;;;;;;1.00;1.00;;;;;20.13;58.42;100550.73;110145;1250;18584;-70
2023/01/12 05:07:27;;;;;;;;;1.33;1.00;;;;;20.12;58.42;100548.09;110086;1265;19388;-69
2023/01/12 05:12:41;;;;;;;;;1.00;1.00;;;;;20.13;58.50;100559.27;110203;1253;20224;-69
2023/01/12 05:15:09;;;;;;;;;1.00;1.00;;;;;20.13;58.39;100562.59;110145;1250;21092;-70
2023/01/12 05:17:38;;;;;;;;;1.00;1.00;;;;;20.12;58.22;100562.95;110188;1265;18737;-70
2023/01/12 05:20:07;;;;;;;;;1.00;1.00;;;;;20.13;58.35;100564.92;110205;1265;18778;-69
2023/01/12 05:22:35;;;;;;;;;1.00;1.00;;;;;20.12;58.29;100560.07;110123;1265;22329;-70
2023/01/12 05:25:03;;;;;;;;;1.00;1.00;;;;;20.12;58.27;100564.66;110124;1251;19870;-70
2023/01/12 05:27:31;;;;;;;;;1.00;1.00;;;;;20.13;58.25;100570.87;110117;1250;23304;-72
2023/01/12 05:30:00;;;;;;;;;1.00;1.00;;;;;20.13;58.46;100573.55;109961;1266;19652;-70
2023/01/12 05:32:28;;;;;;;;;1.00;1.00;;;;;20.14;58.12;100583.65;110113;1250;23236;-70
2023/01/12 05:34:55;;;;;;;;;1.00;1.00;;;;;20.14;58.32;100584.41;109987;1265;18807;-70
2023/01/12 05:37:23;;;;;;;;;1.00;1.00;;;;;20.13;58.33;100587.91;110120;1264;19643;-70
2023/01/12 05:39:51;;;;;;;;;1.00;1.00;;;;;20.13;58.44;100590.84;110111;1265;18433;-70
2023/01/12 05:45:07;;;;;;;;;1.00;1.00;;;;;20.13;58.26;100593.40;110138;1250;20936;-71
2023/01/12 05:47:39;;;;;;;;;1.00;1.00;;;;;20.12;58.34;100600.55;109962;1259;22226;-68
2023/01/12 05:50:07;;;;;;;;;1.00;1.00;;;;;20.13;58.24;100596.29;110161;1265;18615;-69
2023/01/12 05:52:35;;;;;;;;;1.00;1.00;;;;;20.13;58.34;100602.48;110137;1251;20965;-72
2023/01/12 05:55:03;;;;;;;;;1.00;1.00;;;;;20.12;58.44;100599.99;109960;1251;345978;-70
2023/01/12 05:57:31;;;;;;;;;1.00;1.00;;;;;20.13;58.27;100599.21;110136;1248;20903;-72
2023/01/12 05:59:59;;;;;;;;;1.00;1.00;;;;;20.13;58.33;100600.98;109882;1265;19380;-69
2023/01/12 06:02:30;;;;;;;;;1.00;1.00;;;;;20.14;58.23;100600.11;110157;1259;18363;-69
2023/01/12 06:05:00;;;;;;;;;1.00;1.00;;;;;20.16;58.38;100603.18;110074;1250;20223;-71
2023/01/12 06:07:27;;;;;;;;;2.00;2.00;;;;;20.18;58.62;100604.55;109967;1260;20552;-71
2023/01/12 06:09:55;;;;;;;;;1.00;1.00;;;;;20.19;58.92;100601.73;110019;1256;20213;-70
2023/01/12 06:15:08;;;;;;;;;2.00;2.00;;;;;20.20;59.67;100599.07;110021;1265;20911;-70
2023/01/12 06:17:39;;;;;;;;;20.33;19.33;;;;;20.20;59.74;100595.05;110128;1250;19971;-71
2023/01/12 06:20:06;;;;;;;;;20.50;17.00;;;;;20.21;60.01;100592.79;110085;1250;20396;-69
2023/01/12 06:22:35;;;;;;;;;44.33;40.00;;;;;20.24;60.41;100593.96;110099;1258;19393;-73
2023/01/12 06:25:05;;;;;;;;;43.00;37.00;;;;;20.27;60.52;100597.77;110133;1256;19067;-78
2023/01/12 06:27:34;;;;;;;;;30.00;28.00;;;;;20.27;60.79;100594.14;109978;1265;19155;-71
2023/01/12 06:30:01;;;;;;;;;26.50;21.00;;;;;20.29;60.82;100591.69;110002;1249;23050;-71
2023/01/12 06:32:29;;;;;;;;;24.00;20.00;;;;;20.30;60.69;100593.01;110035;1265;20022;-68
2023/01/12 06:34:57;;;;;;;;;23.00;18.00;;;;;20.32;60.82;100589.36;110079;1250;18942;-69
2023/01/12 06:37:26;;;;;;;;;15.00;15.00;;;;;20.35;60.87;100589.39;110099;1265;19412;-67
2023/01/12 06:39:54;;;;;;;;;18.50;16.00;;;;;20.37;60.88;100591.83;110155;1250;20301;-68
2023/01/12 06:42:29;;;;;;;;;12.00;11.00;;;;;20.39;60.98;100596.67;110062;1265;20172;-68
2023/01/12 06:44:57;;;;;;;;;13.67;10.00;;;;;20.39;60.92;100596.40;109940;1251;20813;-69
2023/01/12 06:47:24;;;;;;;;;10.50;8.00;;;;;20.39;61.05;100591.64;110030;1250;20390;-66
2023/01/12 06:49:52;;;;;;;;;10.00;9.00;;;;;20.39;60.91;100590.34;110027;1265;20020;-69
2023/01/12 06:52:23;;;;;;;;;7.00;7.00;;;;;20.39;60.91;100586.66;110070;1249;21328;-70
2023/01/12 06:54:53;;;;;;;;;9.00;7.50;;;;;20.38;60.70;100582.89;110108;1264;18611;-71
2023/01/12 06:57:21;;;;;;;;;7.00;7.00;;;;;20.35;60.78;100581.39;110033;1265;18660;-70
2023/01/12 06:59:49;;;;;;;;;9.00;7.50;;;;;20.33;60.90;100580.74;110071;1265;19748;-70
2023/01/12 07:02:16;;;;;;;;;10.00;7.00;;;;;20.31;60.98;100580.72;109961;1265;18464;-69
2023/01/12 07:04:44;;;;;;;;;8.00;7.00;;;;;20.31;61.02;100584.90;110020;1257;18710;-68
2023/01/12 07:07:14;;;;;;;;;9.00;9.00;;;;;20.33;60.86;100581.08;110065;1250;22702;-70
2023/01/12 07:09:42;;;;;;;;;6.33;6.33;;;;;20.34;60.79;100587.88;110057;1250;19620;-68
2023/01/12 07:12:11;;;;;;;;;7.00;5.00;;;;;20.32;60.82;100588.80;110820;1264;18687;-69
2023/01/12 07:14:39;;;;;;;;;7.00;5.00;;;;;20.28;60.95;100587.95;109931;1256;21623;-69
2023/01/12 07:17:06;;;;;;;;;5.00;5.00;;;;;20.28;60.74;100586.73;109719;1259;19874;-69
2023/01/12 07:19:34;;;;;;;;;5.00;5.00;;;;;20.27;60.88;100584.08;109905;1250;22046;-69
2023/01/12 07:22:02;;;;;;;;;5.00;5.00;;;;;20.26;60.75;100581.50;110101;1265;22664;-70
2023/01/12 07:24:30;;;;;;;;;4.00;4.00;;;;;20.26;60.61;100580.95;110051;1250;23362;-68
2023/01/12 07:27:00;;;;;;;;;5.00;5.00;;;;;20.25;60.73;100575.48;109971;1250;18626;-68
2023/01/12 07:29:27;;;;;;;;;5.00;5.00;;;;;20.25;60.80;100575.45;110077;1258;19656;-70
2023/01/12 07:31:55;;;;;;;;;7.00;5.00;;;;;20.25;60.52;100572.89;109872;1266;19669;-68
2023/01/12 07:34:23;;;;;;;;;4.00;2.00;;;;;20.25;60.59;100576.33;109842;1257;18662;-68
2023/01/12 07:36:51;;;;;;;;;3.00;2.00;;;;;20.25;60.75;100579.05;110146;1265;19374;-69
2023/01/12 07:39:19;;;;;;;;;5.00;4.00;;;;;20.25;60.44;100580.30;109982;1250;19730;-70
2023/01/12 07:44:34;;;;;;;;;3.00;2.00;;;;;20.28;60.35;100577.85;109952;1251;20825;-69
2023/01/12 07:47:02;;;;;;;;;4.00;4.00;;;;;20.29;60.26;100577.95;110025;1250;19714;-71
2023/01/12 07:49:30;;;;;;;;;4.67;4.67;;;;;20.29;60.23;100577.41;109816;1267;18772;-70
2023/01/12 07:51:59;;;;;;;;;6.00;4.00;;;;;20.29;60.45;100580.27;110113;1265;19400;-67
2023/01/12 07:54:27;;;;;;;;;4.00;2.00;;;;;20.27;60.59;100581.70;109846;1267;19638;-68
2023/01/12 07:56:54;;;;;;;;;2.00;2.00;;;;;20.27;60.17;100578.48;109941;1266;20207;-68
2023/01/12 07:59:23;;;;;;;;;5.00;5.00;;;;;20.27;60.25;100580.16;109879;1251;21716;-70
2023/01/12 08:01:51;;;;;;;;;4.00;4.00;;;;;20.30;60.51;100576.89;109961;1266;19937;-69
2023/01/12 08:04:19;;;;;;;;;4.00;4.00;;;;;20.33;61.24;100574.68;109932;1266;18684;-68
2023/01/12 08:06:47;;;;;;;;;4.50;4.00;;;;;20.36;61.63;100574.33;109987;1266;19418;-70
2023/01/12 08:09:15;;;;;;;;;5.00;5.00;;;;;20.49;61.84;100572.73;109925;1257;19720;-69
2023/01/12 08:11:44;;;;;;;;;2.00;2.00;;;;;20.56;62.05;100565.70;109898;1251;21608;-67
2023/01/12 08:14:11;;;;;;;;;4.00;4.00;;;;;20.54;61.86;100559.55;109872;1266;20742;-68
2023/01/12 08:16:39;;;;;;;;;4.00;3.33;;;;;20.51;61.99;100555.73;109927;1266;20382;-64
2023/01/12 08:19:07;;;;;;;;;4.00;4.00;;;;;20.49;61.97;100559.50;109931;1251;18900;-76
2023/01/12 08:21:35;;;;;;;;;4.00;4.00;;;;;20.48;61.86;100560.45;109893;1266;20735;-68
2023/01/12 08:24:03;;;;;;;;;4.33;2.67;;;;;20.48;61.83;100562.63;109900;1250;18925;-70
2023/01/12 08:26:31;;;;;;;;;2.00;2.00;;;;;20.50;61.67;100570.57;110017;1250;18974;-68
2023/01/12 08:28:59;;;;;;;;;5.00;4.00;;;;;20.55;61.59;100569.70;109932;1251;22695;-69
2023/01/12 08:31:27;;;;;;;;;5.00;4.00;;;;;20.56;62.28;100570.30;110047;1250;19776;-70
2023/01/12 08:33:55;;;;;;;;;4.00;4.00;;;;;20.50;62.39;100570.49;109979;1253;18625;-71
2023/01/12 08:36:23;;;;;;;;;5.00;3.00;;;;;20.47;62.40;100567.88;109905;1253;20696;-70
2023/01/12 08:38:51;;;;;;;;;4.67;4.00;;;;;20.45;62.51;100564.09;109862;1267;19805;-70
2023/01/12 08:41:36;;;;;;;;;4.50;4.50;;;;;20.42;62.43;100565.83;109855;1253;21741;-69
2023/01/12 08:44:08;;;;;;;;;5.00;5.00;;;;;20.41;62.63;100558.15;109838;1265;19536;-69
2023/01/12 08:46:37;;;;;;;;;4.00;4.00;;;;;20.41;62.52;100551.68;110036;1251;19630;-70
2023/01/12 08:49:08;;;;;;;;;2.00;2.00;;;;;20.43;62.30;100557.21;110254;1265;19973;-72
2023/01/12 08:51:38;;;;;;;;;4.00;4.00;;;;;20.45;62.27;100557.55;110083;1250;22225;-69
2023/01/12 08:54:05;;;;;;;;;4.00;2.00;;;;;20.45;62.22;100564.78;109928;1251;18424;-69
2023/01/12 08:56:33;;;;;;;;;2.00;2.00;;;;;20.44;62.13;100563.27;109797;1262;19975;-70
2023/01/12 08:59:02;;;;;;;;;2.67;2.67;;;;;20.43;62.02;100561.16;109856;1265;20729;-69
2023/01/12 09:01:30;;;;;;;;;4.00;4.00;;;;;20.44;62.06;100561.25;109859;1251;18427;-71
2023/01/12 09:03:58;;;;;;;;;3.00;2.00;;;;;20.44;61.94;100559.66;109903;1252;18603;-69
2023/01/12 09:06:25;;;;;;;;;4.00;4.00;;;;;20.46;61.68;100559.63;109746;1253;20790;-69
2023/01/12 09:08:54;;;;;;;;;4.00;4.00;;;;;20.49;61.52;100558.34;109795;1266;22800;-69
2023/01/12 09:11:21;;;;;;;;;4.00;4.00;;;;;20.52;61.42;100559.77;109964;1250;18848;-68
2023/01/12 09:13:49;;;;;;;;;4.00;4.00;;;;;20.55;61.33;100556.25;109914;1253;21908;-71
2023/01/12 09:16:18;;;;;;;;;5.00;5.00;;;;;20.53;61.29;100549.03;110043;1251;19592;-70
2023/01/12 09:18:46;;;;;;;;;2.00;2.00;;;;;20.50;61.23;100549.13;109921;1251;20404;-72
2023/01/12 09:21:19;;;;;;;;;2.00;2.00;;;;;20.49;61.02;100548.87;109949;1265;19400;-70
2023/01/12 09:24:02;;;;;;;;;4.00;2.00;;;;;20.49;61.12;100547.27;110089;1250;19935;-70
2023/01/12 09:26:31;;;;;;;;;4.00;2.00;;;;;20.47;60.92;100544.36;109849;1259;18629;-67
2023/01/12 09:28:58;;;;;;;;;5.00;5.00;;;;;20.48;61.00;100541.27;109909;1259;19587;-68
2023/01/12 09:31:26;;;;;;;;;8.00;8.00;;;;;20.49;60.76;100548.90;109952;1257;23009;-69
2023/01/12 09:33:54;;;;;;;;;27.00;20.00;;;;;20.48;60.58;100552.15;109984;1265;23031;-69
2023/01/12 09:36:22;;;;;;;;;53.00;37.50;;;;;20.47;60.59;100546.78;109992;1258;21269;-70
2023/01/12 09:38:50;;;;;;;;;66.00;47.00;;;;;20.46;60.74;100549.27;109907;1250;22573;-69
2023/01/12 09:41:17;;;;;;;;;50.50;40.00;;;;;20.45;60.61;100547.18;109992;1250;22008;-68
2023/01/12 09:49:15;;;;;;;;;34.50;29.00;;;;;20.44;60.45;100539.85;109988;1250;20081;-67
2023/01/12 09:51:43;;;;;;;;;38.00;30.00;;;;;20.45;60.47;100536.27;110019;1249;22057;-69
2023/01/12 09:54:11;;;;;;;;;31.50;29.00;;;;;20.48;60.16;100537.06;110019;1264;18645;-67
2023/01/12 09:56:38;;;;;;;;;30.00;23.00;;;;;20.50;60.23;100532.11;110011;1264;18957;-67
2023/01/12 09:59:06;;;;;;;;;34.00;27.00;;;;;20.47;60.32;100528.77;110033;1265;19581;-66
2023/01/12 10:01:34;;;;;;;;;38.00;28.50;;;;;20.49;60.39;100528.59;110011;1248;18989;-65
2023/01/12 10:04:02;;;;;;;;;35.50;23.50;;;;;20.50;60.38;100525.67;110096;1257;19019;-69
2023/01/12 10:06:30;;;;;;;;;28.00;21.00;;;;;20.49;60.17;100520.55;110028;1250;19392;-67
2023/01/12 10:08:57;;;;;;;;;25.00;24.00;;;;;20.47;59.88;100518.05;110114;1257;18623;-67
2023/01/12 10:11:25;;;;;;;;;24.00;22.33;;;;;20.49;59.76;100517.02;110233;1265;20076;-68
2023/01/12 10:13:53;;;;;;;;;26.00;23.50;;;;;20.50;59.80;100515.88;110053;1256;19522;-68
2023/01/12 10:16:20;;;;;;;;;20.00;19.00;;;;;20.45;59.33;100519.77;110074;1265;18653;-67
2023/01/12 10:18:48;;;;;;;;;24.50;20.00;;;;;20.42;58.63;100521.94;110077;1250;22393;-67
2023/01/12 10:21:17;;;;;;;;;20.50;16.00;;;;;20.42;58.65;100510.54;109938;1266;22576;-67
2023/01/12 10:23:45;;;;;;;;;20.00;14.00;;;;;20.44;58.67;100505.22;110122;1251;20024;-67
2023/01/12 10:26:14;;;;;;;;;16.00;15.00;;;;;20.45;58.44;100509.11;110144;1256;19074;-68
2023/01/12 10:28:41;;;;;;;;;36.50;23.00;;;;;20.45;58.48;100501.67;110063;1250;20858;-68
2023/01/12 10:31:09;;;;;;;;;22.00;18.50;;;;;20.44;58.55;100503.88;110038;1250;20070;-68
2023/01/12 10:33:37;;;;;;;;;17.50;14.50;;;;;20.44;58.55;100505.59;110591;1266;20110;-68
2023/01/12 10:36:04;;;;;;;;;18.00;18.00;;;;;20.43;58.61;100500.08;110054;1264;19342;-67
2023/01/12 10:38:33;;;;;;;;;18.00;17.00;;;;;20.42;58.63;100497.06;110124;1264;18916;-69
2023/01/12 10:41:01;;;;;;;;;14.50;14.00;;;;;20.42;58.49;100497.06;110092;1265;21772;-68
2023/01/12 10:43:32;;;;;;;;;17.50;14.50;;;;;20.41;58.61;100493.09;110082;1259;19767;-68
2023/01/12 10:46:00;;;;;;;;;23.00;17.00;;;;;20.40;58.63;100488.23;110096;1266;22624;-66
2023/01/12 10:48:29;;;;;;;;;14.00;12.00;;;;;20.39;58.33;100487.79;110040;1265;18990;-67
2023/01/12 10:50:57;;;;;;;;;12.00;11.00;;;;;20.33;57.47;100475.73;110099;1265;20896;-67
2023/01/12 10:53:26;;;;;;;;;11.00;8.00;;;;;20.26;56.86;100476.31;110059;1250;20908;-66
2023/01/12 10:55:54;;;;;;;;;10.50;9.00;;;;;20.22;55.99;100473.64;110083;1257;23873;-66
2023/01/12 10:58:22;;;;;;;;;7.00;7.00;;;;;20.19;55.35;100470.56;109970;1253;20930;-67
2023/01/12 11:00:52;;;;;;;;;8.67;8.00;;;;;20.16;54.68;100466.43;110068;1265;21681;-67
2023/01/12 11:03:20;;;;;;;;;10.00;7.00;;;;;20.14;54.21;100462.34;109928;1265;18701;-71
2023/01/12 11:05:48;;;;;;;;;8.00;7.00;;;;;20.12;53.47;100459.51;109874;1251;19575;-69
2023/01/12 11:08:16;;;;;;;;;7.00;7.00;;;;;20.15;53.50;100455.21;109762;1266;18773;-68
2023/01/12 11:10:43;;;;;;;;;10.00;8.00;;;;;20.17;53.57;100447.77;110063;1264;20537;-69
2023/01/12 11:13:12;;;;;;;;;5.00;5.00;;;;;20.19;53.50;100448.75;110099;1265;19563;-69
2023/01/12 11:15:40;;;;;;;;;7.00;5.00;;;;;20.22;53.70;100450.11;110088;1265;18607;-69
2023/01/12 11:18:08;;;;;;;;;10.00;8.00;;;;;20.23;53.84;100442.69;109840;1257;18808;-69
2023/01/12 11:20:38;;;;;;;;;7.00;7.00;;;;;20.24;54.05;100441.36;109871;1259;19440;-69
2023/01/12 11:23:06;;;;;;;;;6.00;5.00;;;;;20.25;54.32;100437.52;110125;1265;18786;-70
2023/01/12 11:25:35;;;;;;;;;5.00;5.00;;;;;20.25;54.24;100433.89;109880;1257;18680;-69
2023/01/12 11:28:03;;;;;;;;;6.00;5.00;;;;;20.25;54.71;100429.58;110067;1265;19391;-69
2023/01/12 11:30:30;;;;;;;;;5.00;5.00;;;;;20.24;54.60;100426.75;110058;1265;18312;-69
2023/01/12 11:33:00;;;;;;;;;7.00;5.00;;;;;20.25;54.46;100424.91;109874;1265;22260;-70
2023/01/12 11:35:27;;;;;;;;;5.00;4.00;;;;;20.25;53.97;100424.34;110035;1265;19766;-70
2023/01/12 11:37:56;;;;;;;;;7.00;5.00;;;;;20.26;54.31;100414.73;109945;1254;18608;-69
2023/01/12 11:40:28;;;;;;;;;4.00;4.00;;;;;20.28;54.50;100419.39;110037;1257;20162;-65
2023/01/12 11:45:41;;;;;;;;;5.00;4.00;;;;;20.31;54.65;100404.39;110122;1250;19551;-69
2023/01/12 11:48:09;;;;;;;;;5.00;5.00;;;;;20.33;55.10;100402.13;110060;1265;19978;-68
2023/01/12 11:50:38;;;;;;;;;5.00;5.00;;;;;20.34;54.91;100396.78;110099;1251;21238;-67
2023/01/12 11:53:06;;;;;;;;;4.50;4.00;;;;;20.34;54.95;100396.75;109893;1250;23132;-68
2023/01/12 11:55:35;;;;;;;;;5.00;5.00;;;;;20.35;55.13;100392.31;110157;1250;20015;-69